createdAt,value
2017-11-15T00:02:27.762Z,28.97
2017-11-15T00:04:56.650Z,26.17
2017-11-15T00:07:25.508Z,25.30
2017-11-15T00:09:54.397Z,26.60
2017-11-15T00:12:23.254Z,26.37
2017-11-15T00:14:52.149Z,25.30
2017-11-15T00:17:21.028Z,25.67
2017-11-15T00:19:49.900Z,27.23
2017-11-15T00:22:24.724Z,26.00
2017-11-15T00:24:53.660Z,27.37
2017-11-15T00:27:22.569Z,26.13
2017-11-15T00:29:51.430Z,24.57
2017-11-15T00:32:20.316Z,27.57
2017-11-15T00:34:49.183Z,24.80
2017-11-15T00:37:18.058Z,27.80
2017-11-15T00:39:46.932Z,24.63
2017-11-15T00:42:15.814Z,26.40
2017-11-15T00:44:44.689Z,23.97
2017-11-15T00:47:13.621Z,26.00
2017-11-15T00:49:42.498Z,25.20
2017-11-15T00:52:11.369Z,24.50
2017-11-15T00:54:40.252Z,24.73
2017-11-15T00:57:09.137Z,23.00
2017-11-15T00:59:38.039Z,23.93
2017-11-15T01:02:06.895Z,22.23
2017-11-15T01:04:36.674Z,22.97
2017-11-15T01:07:05.558Z,24.20
2017-11-15T01:09:34.501Z,20.97
2017-11-15T01:12:03.377Z,22.03
2017-11-15T01:14:32.242Z,22.07
2017-11-15T01:17:01.221Z,22.53
2017-11-15T01:19:30.085Z,21.57
2017-11-15T01:21:58.975Z,22.50
2017-11-15T01:24:27.886Z,21.80
2017-11-15T01:26:56.771Z,22.63
2017-11-15T01:29:25.627Z,22.60
2017-11-15T01:31:54.518Z,21.87
2017-11-15T01:34:23.401Z,23.33
2017-11-15T01:36:52.260Z,23.10
2017-11-15T01:39:21.140Z,22.30
2017-11-15T01:41:50.009Z,22.70
2017-11-15T01:44:19.017Z,21.13
2017-11-15T01:46:47.888Z,23.37
2017-11-15T01:49:16.752Z,21.27
2017-11-15T01:51:45.634Z,21.20
2017-11-15T01:54:14.488Z,20.03
2017-11-15T01:56:43.376Z,20.80
2017-11-15T01:59:12.259Z,20.37
2017-11-15T02:01:41.266Z,19.80
2017-11-15T02:04:10.137Z,20.57
2017-11-15T02:06:39.012Z,18.40
2017-11-15T02:09:07.903Z,19.90
2017-11-15T02:11:36.760Z,18.43
2017-11-15T02:14:05.631Z,17.70
2017-11-15T02:16:34.496Z,19.00
2017-11-15T02:19:03.555Z,17.70
2017-11-15T02:21:32.422Z,20.83
2017-11-15T02:24:01.647Z,20.27
2017-11-15T02:26:30.510Z,18.73
2017-11-15T02:28:59.428Z,20.50
2017-11-15T02:31:28.293Z,19.73
2017-11-15T02:33:57.233Z,18.30
2017-11-15T02:36:26.139Z,19.90
2017-11-15T02:38:55.016Z,19.30
2017-11-15T02:41:23.896Z,19.53
2017-11-15T02:43:52.783Z,20.07
2017-11-15T02:46:21.650Z,20.03
2017-11-15T02:48:50.547Z,18.30
2017-11-15T02:51:19.420Z,19.80
2017-11-15T02:53:48.301Z,19.90
2017-11-15T02:56:17.195Z,20.13
2017-11-15T02:58:46.096Z,18.77
2017-11-15T03:01:14.983Z,20.67
2017-11-15T03:03:43.848Z,20.60
2017-11-15T03:06:12.762Z,17.07
2017-11-15T03:08:41.629Z,20.73
2017-11-15T03:11:10.496Z,18.20
2017-11-15T03:13:39.385Z,19.63
2017-11-15T03:16:08.240Z,21.43
2017-11-15T03:18:37.135Z,20.33
2017-11-15T03:21:11.748Z,19.47
2017-11-15T03:23:40.639Z,19.43
2017-11-15T03:26:09.494Z,20.33
2017-11-15T03:28:38.387Z,19.40
2017-11-15T03:31:07.268Z,19.17
2017-11-15T03:33:36.163Z,20.80
2017-11-15T03:36:05.035Z,17.97
2017-11-15T03:38:33.891Z,19.93
2017-11-15T03:41:02.807Z,19.63
2017-11-15T03:43:31.675Z,18.70
2017-11-15T03:46:00.549Z,17.63
2017-11-15T03:48:29.432Z,18.30
2017-11-15T03:50:58.374Z,17.00
2017-11-15T03:53:27.270Z,17.83
2017-11-15T03:55:56.152Z,19.00
2017-11-15T03:58:25.187Z,17.27
2017-11-15T04:00:54.049Z,17.07
2017-11-15T04:03:22.928Z,15.53
2017-11-15T04:05:51.805Z,16.60
2017-11-15T04:08:20.663Z,15.70
2017-11-15T04:10:49.535Z,16.67
2017-11-15T04:13:18.409Z,16.77
2017-11-15T04:15:47.335Z,16.00
2017-11-15T04:18:16.361Z,17.47
2017-11-15T04:20:45.231Z,17.50
2017-11-15T04:23:14.121Z,16.00
2017-11-15T04:25:42.988Z,17.27
2017-11-15T04:28:11.884Z,18.00
2017-11-15T04:30:40.751Z,16.27
2017-11-15T04:33:09.742Z,18.03
2017-11-15T04:35:38.637Z,18.90
2017-11-15T04:38:07.512Z,18.63
2017-11-15T04:40:36.390Z,18.03
2017-11-15T04:43:05.252Z,18.30
2017-11-15T04:45:34.168Z,17.57
2017-11-15T04:48:04.445Z,17.73
2017-11-15T04:50:33.328Z,17.07
2017-11-15T04:53:02.180Z,17.93
2017-11-15T04:55:31.052Z,18.10
2017-11-15T04:57:59.962Z,18.57
2017-11-15T05:00:28.838Z,17.20
2017-11-15T05:02:57.711Z,18.03
2017-11-15T05:05:26.580Z,18.80
2017-11-15T05:07:55.456Z,18.00
2017-11-15T05:10:24.312Z,18.23
2017-11-15T05:12:53.391Z,16.10
2017-11-15T05:15:22.260Z,18.23
2017-11-15T05:17:51.149Z,19.10
2017-11-15T05:20:20.042Z,20.10
2017-11-15T05:22:48.910Z,18.33
2017-11-15T05:25:17.783Z,17.60
2017-11-15T05:27:46.650Z,17.63
2017-11-15T05:30:15.551Z,19.27
2017-11-15T05:32:44.433Z,17.70
2017-11-15T05:35:13.303Z,19.10
2017-11-15T05:37:42.193Z,19.80
2017-11-15T05:40:11.062Z,19.00
2017-11-15T05:42:39.951Z,18.47
2017-11-15T05:45:08.809Z,17.10
2017-11-15T05:47:37.918Z,17.87
2017-11-15T05:50:06.782Z,19.30
2017-11-15T05:52:35.656Z,17.30
2017-11-15T05:55:04.551Z,17.70
2017-11-15T05:57:33.409Z,16.53
2017-11-15T06:00:02.355Z,16.63
2017-11-15T06:02:31.220Z,17.17
2017-11-15T06:05:00.102Z,18.07
2017-11-15T06:07:28.990Z,18.23
2017-11-15T06:09:58.002Z,19.07
2017-11-15T06:12:26.817Z,15.80
2017-11-15T06:14:55.814Z,16.67
2017-11-15T06:17:24.776Z,16.90
2017-11-15T06:19:53.653Z,17.20
2017-11-15T06:22:22.642Z,21.93
2017-11-15T06:24:51.537Z,21.10
2017-11-15T06:27:20.400Z,17.37
2017-11-15T06:29:49.331Z,19.53
2017-11-15T06:32:18.137Z,17.20
2017-11-15T06:34:47.155Z,17.83
2017-11-15T06:37:16.034Z,18.90
2017-11-15T06:39:44.823Z,17.80
2017-11-15T06:42:13.716Z,17.60
2017-11-15T06:44:42.610Z,15.67
2017-11-15T06:47:11.547Z,16.97
2017-11-15T06:49:40.426Z,18.20
2017-11-15T06:52:09.301Z,16.20
2017-11-15T06:54:38.192Z,17.47
2017-11-15T06:57:07.066Z,17.97
2017-11-15T06:59:35.936Z,17.70
2017-11-15T07:02:04.837Z,18.50
2017-11-15T07:04:33.719Z,19.00
2017-11-15T07:07:02.619Z,17.37
2017-11-15T07:09:31.478Z,17.80
2017-11-15T07:12:00.365Z,17.23
2017-11-15T07:14:29.253Z,15.80
2017-11-15T07:16:58.128Z,18.00
2017-11-15T07:19:27.020Z,18.87
2017-11-15T07:21:55.925Z,17.20
2017-11-15T07:24:24.812Z,18.93
2017-11-15T07:26:53.692Z,18.53
2017-11-15T07:29:22.592Z,20.90
2017-11-15T07:31:51.473Z,21.10
2017-11-15T07:34:20.355Z,18.80
2017-11-15T07:36:49.241Z,19.10
2017-11-15T07:39:18.152Z,17.47
2017-11-15T07:41:47.030Z,21.27
2017-11-15T07:44:15.940Z,20.37
2017-11-15T07:46:44.822Z,18.70
2017-11-15T07:49:13.719Z,19.17
2017-11-15T07:51:42.647Z,20.00
2017-11-15T07:54:11.721Z,19.43
2017-11-15T07:56:40.656Z,20.33
2017-11-15T07:59:09.671Z,20.00
2017-11-15T08:01:38.545Z,19.13
2017-11-15T08:04:07.437Z,21.20
2017-11-15T08:06:36.445Z,20.10
2017-11-15T08:09:05.347Z,17.57
2017-11-15T08:11:34.311Z,20.90
2017-11-15T08:14:03.224Z,18.40
2017-11-15T08:16:32.082Z,20.37
2017-11-15T08:19:00.983Z,20.63
2017-11-15T08:21:29.944Z,19.97
2017-11-15T08:23:58.906Z,19.87
2017-11-15T08:26:27.787Z,20.13
2017-11-15T08:28:56.647Z,20.10
2017-11-15T08:31:25.653Z,21.10
2017-11-15T08:33:54.587Z,19.57
2017-11-15T08:36:23.609Z,18.37
2017-11-15T08:38:52.508Z,26.47
2017-11-15T08:41:21.405Z,19.77
2017-11-15T08:43:50.306Z,20.30
2017-11-15T08:46:19.185Z,19.83
2017-11-15T08:48:48.053Z,19.77
2017-11-15T08:51:16.932Z,21.00
2017-11-15T08:53:45.805Z,21.47
2017-11-15T08:56:14.676Z,20.07
2017-11-15T08:58:43.549Z,20.47
2017-11-15T09:01:12.435Z,19.67
2017-11-15T09:03:41.322Z,19.67
2017-11-15T09:06:10.187Z,19.00
2017-11-15T09:08:39.081Z,19.50
2017-11-15T09:11:07.960Z,18.70
2017-11-15T09:13:36.839Z,21.27
2017-11-15T09:16:05.725Z,19.17
2017-11-15T09:18:34.630Z,22.30
2017-11-15T09:21:03.543Z,20.50
2017-11-15T09:23:32.410Z,20.10
2017-11-15T09:26:01.336Z,20.60
2017-11-15T09:28:30.215Z,19.47
2017-11-15T09:30:59.107Z,20.83
2017-11-15T09:33:27.964Z,20.80
2017-11-15T09:35:56.897Z,18.67
2017-11-15T09:38:25.768Z,21.93
2017-11-15T09:40:54.627Z,18.87
2017-11-15T09:43:23.500Z,20.53
2017-11-15T09:45:52.378Z,20.13
2017-11-15T09:48:21.260Z,20.27
2017-11-15T09:50:50.179Z,20.50
2017-11-15T09:53:19.175Z,19.73
2017-11-15T09:55:48.030Z,18.70
2017-11-15T09:58:16.897Z,17.93
2017-11-15T10:00:45.786Z,18.90
2017-11-15T10:03:14.643Z,17.90
2017-11-15T10:05:43.526Z,18.60
2017-11-15T10:08:12.385Z,18.50
2017-11-15T10:10:41.402Z,19.63
2017-11-15T10:13:10.273Z,20.73
2017-11-15T10:15:39.135Z,19.83
2017-11-15T10:18:08.000Z,21.47
2017-11-15T10:20:36.873Z,21.20
2017-11-15T10:23:05.748Z,24.75
2017-11-15T10:25:34.616Z,24.33
2017-11-15T10:28:03.483Z,20.57
2017-11-15T10:30:32.356Z,20.30
2017-11-15T10:33:01.419Z,20.23
2017-11-15T10:35:30.289Z,17.67
2017-11-15T10:37:59.147Z,18.37
2017-11-15T10:40:28.278Z,19.07
2017-11-15T10:42:57.152Z,18.97
2017-11-15T10:45:26.051Z,16.67
2017-11-15T10:47:54.928Z,19.03
2017-11-15T10:50:23.844Z,18.13
2017-11-15T10:52:52.696Z,17.43
2017-11-15T10:55:21.560Z,16.97
2017-11-15T10:57:50.504Z,15.57
2017-11-15T11:00:19.380Z,16.90
2017-11-15T11:02:48.283Z,16.07
2017-11-15T11:05:17.167Z,17.60
2017-11-15T11:07:46.042Z,17.77
2017-11-15T11:10:14.905Z,17.90
2017-11-15T11:12:43.816Z,18.30
2017-11-15T11:15:12.692Z,18.77
2017-11-15T11:17:41.552Z,17.77
2017-11-15T11:20:10.443Z,18.27
2017-11-15T11:22:39.309Z,16.83
2017-11-15T11:25:08.191Z,15.77
2017-11-15T11:27:37.113Z,16.20
2017-11-15T11:30:06.013Z,16.50
2017-11-15T11:32:34.878Z,16.87
2017-11-15T11:35:03.740Z,16.23
2017-11-15T11:37:32.617Z,16.50
2017-11-15T11:40:01.505Z,16.53
2017-11-15T11:42:30.383Z,15.27
2017-11-15T11:44:59.254Z,15.87
2017-11-15T11:47:28.148Z,16.47
2017-11-15T11:49:56.998Z,16.33
2017-11-15T11:52:25.886Z,16.23
2017-11-15T11:54:54.752Z,14.57
2017-11-15T11:57:23.634Z,15.00
2017-11-15T11:59:52.512Z,14.00
2017-11-15T12:02:21.646Z,15.30
2017-11-15T12:04:50.529Z,16.47
2017-11-15T12:07:19.401Z,16.60
2017-11-15T12:09:48.292Z,14.50
2017-11-15T12:12:17.168Z,15.80
2017-11-15T12:14:46.062Z,15.23
2017-11-15T12:17:14.962Z,13.70
2017-11-15T12:19:44.063Z,15.10
2017-11-15T12:22:12.995Z,13.90
2017-11-15T12:24:41.870Z,14.90
2017-11-15T12:27:10.776Z,15.10
2017-11-15T12:29:39.638Z,13.07
2017-11-15T12:32:08.593Z,14.93
2017-11-15T12:34:37.454Z,16.33
2017-11-15T12:37:06.321Z,15.37
2017-11-15T12:39:35.198Z,16.10
2017-11-15T12:42:04.096Z,16.33
2017-11-15T12:44:32.949Z,15.97
2017-11-15T12:47:01.868Z,15.90
2017-11-15T12:49:30.732Z,16.53
2017-11-15T12:51:59.608Z,17.20
2017-11-15T12:54:28.475Z,16.77
2017-11-15T12:56:57.337Z,15.40
2017-11-15T12:59:26.258Z,16.63
2017-11-15T13:01:55.122Z,17.20
2017-11-15T13:04:24.181Z,17.00
2017-11-15T13:06:53.060Z,16.97
2017-11-15T13:09:21.922Z,16.53
2017-11-15T13:11:50.809Z,19.23
2017-11-15T13:14:19.674Z,18.27
2017-11-15T13:16:48.575Z,17.47
2017-11-15T13:19:17.431Z,16.50
2017-11-15T13:21:46.314Z,16.87
2017-11-15T13:24:15.182Z,14.50
2017-11-15T13:26:44.052Z,17.10
2017-11-15T13:29:13.186Z,18.40
2017-11-15T13:31:42.147Z,18.10
2017-11-15T13:34:11.039Z,21.37
2017-11-15T13:36:39.933Z,17.93
2017-11-15T13:39:08.885Z,20.10
2017-11-15T13:41:37.761Z,22.23
2017-11-15T13:44:06.697Z,20.63
2017-11-15T13:46:35.584Z,21.97
2017-11-15T13:49:04.458Z,23.40
2017-11-15T13:51:33.469Z,23.27
2017-11-15T13:54:02.339Z,24.40
2017-11-15T13:56:31.347Z,26.23
2017-11-15T13:59:00.260Z,23.60
2017-11-15T14:01:29.180Z,26.20
2017-11-15T14:03:58.048Z,28.30
2017-11-15T14:06:26.927Z,25.20
2017-11-15T14:08:55.809Z,26.50
2017-11-15T14:11:24.688Z,26.40
2017-11-15T14:13:53.572Z,26.00
2017-11-15T14:16:22.780Z,26.00
2017-11-15T14:18:51.679Z,25.17
2017-11-15T14:21:20.568Z,27.50
2017-11-15T14:23:49.444Z,27.33
2017-11-15T14:26:18.300Z,25.90
2017-11-15T14:28:47.166Z,24.70
2017-11-15T14:31:16.613Z,25.30
2017-11-15T14:33:45.508Z,26.37
2017-11-15T14:36:14.435Z,25.53
2017-11-15T14:38:43.290Z,26.07
2017-11-15T14:41:12.192Z,26.57
2017-11-15T14:43:41.094Z,27.10
2017-11-15T14:46:10.064Z,26.80
2017-11-15T14:48:38.958Z,25.90
2017-11-15T14:51:08.037Z,25.83
2017-11-15T14:53:36.903Z,26.20
2017-11-15T14:56:05.760Z,25.73
2017-11-15T14:58:34.812Z,25.50
2017-11-15T15:01:03.699Z,25.20
2017-11-15T15:03:32.578Z,25.13
2017-11-15T15:06:01.427Z,26.13
2017-11-15T15:08:30.417Z,24.37
2017-11-15T15:10:59.310Z,25.43
2017-11-15T15:13:28.171Z,27.97
2017-11-15T15:15:57.058Z,25.80
2017-11-15T15:18:25.913Z,26.13
2017-11-15T15:20:54.785Z,26.07
2017-11-15T15:23:23.660Z,24.23
2017-11-15T15:25:52.543Z,26.53
2017-11-15T15:28:21.416Z,28.47
2017-11-15T15:30:50.366Z,25.00
2017-11-15T15:33:19.235Z,26.77
2017-11-15T15:35:48.149Z,26.60
2017-11-15T15:38:17.123Z,27.17
2017-11-15T15:40:45.991Z,25.83
2017-11-15T15:43:14.870Z,28.97
2017-11-15T15:45:43.736Z,25.70
2017-11-15T15:48:12.635Z,24.80
2017-11-15T15:50:41.562Z,24.33
2017-11-15T15:53:10.415Z,24.60
2017-11-15T15:55:39.318Z,24.40
2017-11-15T15:58:08.176Z,23.70
2017-11-15T16:00:37.061Z,24.77
2017-11-15T16:03:05.927Z,20.53
2017-11-15T16:05:34.843Z,26.63
2017-11-15T16:08:03.699Z,23.43
2017-11-15T16:10:32.552Z,23.90
2017-11-15T16:13:01.458Z,23.87
2017-11-15T16:15:30.341Z,22.40
2017-11-15T16:17:59.264Z,23.63
2017-11-15T16:20:28.126Z,20.83
2017-11-15T16:22:57.052Z,22.53
2017-11-15T16:25:25.928Z,21.97
2017-11-15T16:27:54.788Z,20.03
2017-11-15T16:30:23.672Z,20.30
2017-11-15T16:32:52.537Z,19.93
2017-11-15T16:35:21.407Z,21.63
2017-11-15T16:37:50.268Z,20.37
2017-11-15T16:40:19.171Z,19.00
2017-11-15T16:42:48.065Z,17.83
2017-11-15T16:45:16.957Z,19.40
2017-11-15T16:47:45.850Z,19.83
2017-11-15T16:50:14.722Z,21.67
2017-11-15T16:52:43.613Z,19.07
2017-11-15T16:55:12.495Z,20.47
2017-11-15T16:57:41.364Z,18.97
2017-11-15T17:00:10.228Z,20.47
2017-11-15T17:02:39.113Z,21.87
2017-11-15T17:05:07.990Z,21.93
2017-11-15T17:07:36.867Z,20.53
2017-11-15T17:10:05.739Z,19.37
2017-11-15T17:12:34.641Z,20.73
2017-11-15T17:15:03.531Z,23.27
2017-11-15T17:17:32.396Z,21.77
2017-11-15T17:20:01.275Z,21.67
2017-11-15T17:22:30.133Z,21.20
2017-11-15T17:24:59.004Z,22.70
2017-11-15T17:27:27.877Z,22.30
2017-11-15T17:29:56.787Z,23.90
2017-11-15T17:32:25.659Z,25.83
2017-11-15T17:34:54.511Z,23.40
2017-11-15T17:37:23.391Z,24.50
2017-11-15T17:39:52.291Z,22.67
2017-11-15T17:42:21.162Z,24.73
2017-11-15T17:44:50.028Z,22.37
2017-11-15T17:47:18.917Z,24.23
2017-11-15T17:49:47.804Z,25.50
2017-11-15T17:52:16.680Z,26.10
2017-11-15T17:54:45.540Z,25.77
2017-11-15T17:57:14.435Z,26.20
2017-11-15T17:59:43.324Z,28.40
2017-11-15T18:02:12.280Z,33.37
2017-11-15T18:04:41.172Z,27.30
2017-11-15T18:07:10.048Z,27.40
2017-11-15T18:09:38.944Z,28.97
2017-11-15T18:12:07.865Z,29.47
2017-11-15T18:14:36.721Z,29.40
2017-11-15T18:17:05.603Z,27.27
2017-11-15T18:19:34.528Z,29.03
2017-11-15T18:22:03.391Z,28.50
2017-11-15T18:24:32.274Z,28.10
2017-11-15T18:27:01.163Z,29.73
2017-11-15T18:29:30.308Z,29.77
2017-11-15T18:31:59.229Z,27.73
2017-11-15T18:34:28.104Z,25.67
2017-11-15T18:36:57.021Z,28.07
2017-11-15T18:39:25.885Z,27.03
2017-11-15T18:41:54.759Z,25.90
2017-11-15T18:44:23.649Z,27.07
2017-11-15T18:46:52.518Z,25.40
2017-11-15T18:49:21.387Z,25.43
2017-11-15T18:51:50.285Z,23.87
2017-11-15T18:54:19.133Z,25.07
2017-11-15T18:56:48.065Z,23.83
2017-11-15T18:59:17.011Z,23.90
2017-11-15T19:01:45.865Z,22.50
2017-11-15T19:04:14.767Z,22.43
2017-11-15T19:06:43.676Z,22.20
2017-11-15T19:09:12.551Z,22.37
2017-11-15T19:11:41.677Z,23.00
2017-11-15T19:14:10.579Z,22.07
2017-11-15T19:16:39.467Z,23.97
2017-11-15T19:19:08.392Z,23.63
2017-11-15T19:21:37.323Z,21.90
2017-11-15T19:24:06.189Z,23.27
2017-11-15T19:26:35.089Z,23.40
2017-11-15T19:29:03.960Z,22.17
2017-11-15T19:31:32.902Z,24.00
2017-11-15T19:34:01.799Z,22.33
2017-11-15T19:36:30.667Z,21.57
2017-11-15T19:38:59.552Z,23.37
2017-11-15T19:41:28.426Z,22.50
2017-11-15T19:43:57.287Z,23.60
2017-11-15T19:46:26.151Z,21.20
2017-11-15T19:48:55.202Z,21.83
2017-11-15T19:51:24.059Z,21.47
2017-11-15T19:53:52.919Z,27.53
2017-11-15T19:56:21.783Z,23.00
2017-11-15T19:58:50.719Z,22.10
2017-11-15T20:01:19.695Z,22.10
2017-11-15T20:03:48.591Z,22.63
2017-11-15T20:06:17.640Z,22.83
2017-11-15T20:08:46.531Z,23.70
2017-11-15T20:11:15.418Z,25.13
2017-11-15T20:13:44.295Z,24.23
2017-11-15T20:16:13.179Z,22.13
2017-11-15T20:18:42.064Z,23.90
2017-11-15T20:21:11.235Z,24.13
2017-11-15T20:23:40.263Z,23.57
2017-11-15T20:26:09.156Z,23.40
2017-11-15T20:28:38.040Z,25.33
2017-11-15T20:31:07.073Z,23.43
2017-11-15T20:33:35.924Z,22.83
2017-11-15T20:36:05.156Z,24.07
2017-11-15T20:38:34.019Z,23.87
2017-11-15T20:41:02.916Z,22.60
2017-11-15T20:43:31.791Z,23.47
2017-11-15T20:46:00.683Z,23.30
2017-11-15T20:48:29.577Z,22.60
2017-11-15T20:50:58.559Z,22.50
2017-11-15T20:53:27.602Z,21.77
2017-11-15T20:55:56.461Z,19.20
2017-11-15T20:58:25.483Z,20.93
2017-11-15T21:00:54.355Z,20.90
2017-11-15T21:03:23.221Z,20.30
2017-11-15T21:05:52.107Z,21.93
2017-11-15T21:08:20.977Z,21.73
2017-11-15T21:10:49.867Z,21.90
2017-11-15T21:13:18.719Z,24.90
2017-11-15T21:15:47.627Z,22.83
2017-11-15T21:18:16.524Z,21.30
2017-11-15T21:20:45.401Z,26.43
2017-11-15T21:23:14.380Z,26.63
2017-11-15T21:25:43.250Z,22.33
2017-11-15T21:28:12.122Z,21.90
2017-11-15T21:30:40.991Z,21.50
2017-11-15T21:33:09.882Z,21.03
2017-11-15T21:35:38.741Z,21.23
2017-11-15T21:38:07.612Z,20.30
2017-11-15T21:40:36.485Z,21.37
2017-11-15T21:43:05.590Z,20.83
2017-11-15T21:45:34.462Z,20.67
2017-11-15T21:48:03.323Z,21.70
2017-11-15T21:50:32.257Z,24.77
2017-11-15T21:53:01.122Z,22.50
2017-11-15T21:55:30.020Z,22.63
2017-11-15T21:57:58.879Z,22.23
2017-11-15T22:00:27.794Z,21.43
2017-11-15T22:02:56.663Z,21.70
2017-11-15T22:05:25.556Z,20.67
2017-11-15T22:07:54.423Z,20.20
2017-11-15T22:10:23.280Z,19.60
2017-11-15T22:12:52.164Z,22.50
2017-11-15T22:15:21.022Z,24.90
2017-11-15T22:17:49.924Z,23.43
2017-11-15T22:20:18.786Z,21.30
2017-11-15T22:22:47.683Z,20.93
2017-11-15T22:25:16.595Z,21.77
2017-11-15T22:27:45.443Z,25.53
2017-11-15T22:30:14.319Z,22.23
2017-11-15T22:32:43.189Z,25.17
2017-11-15T22:35:12.082Z,25.20
2017-11-15T22:37:40.990Z,23.13
2017-11-15T22:40:09.869Z,25.50
2017-11-15T22:42:38.750Z,25.93
2017-11-15T22:45:07.623Z,24.13
2017-11-15T22:47:36.515Z,22.70
2017-11-15T22:50:05.381Z,24.57
2017-11-15T22:52:34.497Z,24.20
2017-11-15T22:55:03.350Z,23.70
2017-11-15T22:57:32.217Z,24.13
2017-11-15T23:00:01.105Z,23.70
2017-11-15T23:02:30.024Z,23.03
2017-11-15T23:04:58.928Z,26.80
2017-11-15T23:07:27.809Z,23.10
2017-11-15T23:09:56.700Z,25.50
2017-11-15T23:12:25.571Z,23.47
2017-11-15T23:14:54.436Z,22.13
2017-11-15T23:17:23.316Z,21.50
2017-11-15T23:19:52.168Z,22.83
2017-11-15T23:22:21.044Z,24.77
2017-11-15T23:24:49.930Z,23.63
2017-11-15T23:27:18.825Z,27.70
2017-11-15T23:29:47.704Z,27.70
2017-11-15T23:32:16.568Z,25.23
2017-11-15T23:34:45.457Z,24.43
2017-11-15T23:37:14.329Z,25.20
2017-11-15T23:39:43.232Z,23.70
2017-11-15T23:42:12.117Z,25.93
2017-11-15T23:44:41.000Z,24.33
2017-11-15T23:47:09.891Z,24.07
2017-11-15T23:49:38.747Z,22.17
2017-11-15T23:52:07.686Z,26.00
2017-11-15T23:54:36.580Z,26.10
2017-11-15T23:57:05.463Z,26.50
2017-11-15T23:59:34.359Z,25.87
